Aérodrome :







RETROUVEZ-NOUS SUR...

 
LOGIN :

S'inscrire | Disclaimer

   EN    FR    IT 

 









Légende :    VFR   VFR Marginal   IFR   IFR Intensif   IFR Très Intensif
Visi : 
Plafond : 
>= 8 km
>= 3000ft
5 à 8 km
1000 à 3000 ft
1500m à 5 km
500 à 1000 ft
800 à 1500m
200 à 500 ft
< 800m
< 200 ft
Symboles :   Orages  Brouillard  Fortes neiges  Fortes précipitations  Vent > 20 kt






- Altitude de l'aérodrome : 192 ft
- Code IATA : BGR


KBGR - Bangor International

DERNIER METAR :
  • 221553Z 27006KT 10SM SCT100 BKN250 00/M11 A3004 RMK AO2 SLP177 T00001111

METARs EXPIRÉS :
  • 221453Z 27006KT 10SM SCT100 BKN250 M01/M13 A3005 RMK AO2 SLP181 T10111128 58002
  • 221353Z AUTO 00000KT 10SM BKN100 BKN250 M07/M14 A3007 RMK AO2 SLP186 T10721139

TAF KBGR
Valide du 22 à 12h jusqu'au 23 à 12h UTC


221120Z 2212/2312 24006KT P6SM FEW100 WS020/27030KT
FM221500 26008KT P6SM SCT100
FM222300 24005KT P6SM SCT080



MET'MAP, la Météo Aéronautique d'un coup d'oeil ! - Copyright ORBIFLY Décembre 2007 - Disclaimer

ORBIFLY MET'MAP TEAM :

Programmation & Développement : Alexandra Zaïnal
Sur une idée originale de : Baudouin d'Aumeries
Assistance à la programmation : Marc-Olivier Méhu
Soutien technique & logistique : Manuel Goepfert

Contact : metmap@orbifly.com




SOURCES & CREDITS :

   NOAA